Time;durP1;ratioP1;P1;durP2;ratioP2;P2;SDS_P1;SDS_P2;PMS_P1;PMS_P2;Temp;Humidity;BMP_temperature;BMP_pressure;BME280_temperature;BME280_humidity;BME280_pressure;Samples;Min_cycle;Max_cycle;Signal;HPM_P1;HPM_P2
2021/05/20 00:00:43;;;;;;;1.18;0.85;;;;;;;11.74;85.43;98277.53;130005;1101;22585;-69
2021/05/20 00:03:12;;;;;;;1.25;1.05;;;;;;;11.73;85.57;98275.91;129944;1101;22555;-68
2021/05/20 00:05:40;;;;;;;3.30;0.73;;;;;;;11.73;85.72;98280.55;130017;1101;23641;-68
2021/05/20 00:08:09;;;;;;;0.63;0.63;;;;;;;11.72;85.52;98278.93;129914;1101;22509;-68
2021/05/20 00:10:39;;;;;;;1.08;0.98;;;;;;;11.71;85.66;98275.39;129957;1101;22661;-68
2021/05/20 00:13:08;;;;;;;1.98;0.70;;;;;;;11.69;85.38;98275.69;129926;1101;22533;-68
2021/05/20 00:15:36;;;;;;;1.18;0.90;;;;;;;11.70;85.47;98269.13;130013;1101;22623;-68
2021/05/20 00:18:05;;;;;;;1.58;0.80;;;;;;;11.71;85.52;98272.66;129939;1101;22632;-68
2021/05/20 00:20:35;;;;;;;5.18;1.10;;;;;;;11.70;85.62;98273.77;129986;1101;22638;-68
2021/05/20 00:23:03;;;;;;;0.70;0.70;;;;;;;11.67;85.59;98277.92;129665;1101;24393;-68
2021/05/20 00:25:32;;;;;;;0.60;0.60;;;;;;;11.63;85.23;98274.16;129984;1101;22583;-68
2021/05/20 00:28:00;;;;;;;1.00;0.78;;;;;;;11.64;85.73;98273.05;129950;1101;23265;-68
2021/05/20 00:30:28;;;;;;;0.90;0.73;;;;;;;11.63;85.53;98274.16;130018;1101;23045;-68
2021/05/20 00:32:57;;;;;;;0.95;0.80;;;;;;;11.63;85.61;98279.61;129924;1101;24251;-68
2021/05/20 00:35:26;;;;;;;0.95;0.70;;;;;;;11.64;85.46;98283.96;129980;1101;22550;-68
2021/05/20 00:37:55;;;;;;;2.28;0.98;;;;;;;11.62;85.45;98275.26;129974;1101;22538;-68
2021/05/20 00:40:23;;;;;;;1.33;0.93;;;;;;;11.62;85.71;98279.91;129989;1101;22641;-68
2021/05/20 00:42:52;;;;;;;1.63;0.80;;;;;;;11.60;85.63;98282.11;129963;1101;22572;-68
2021/05/20 00:45:22;;;;;;;1.20;0.80;;;;;;;11.60;85.50;98277.47;130011;1101;23501;-69
2021/05/20 00:47:51;;;;;;;1.60;0.80;;;;;;;11.60;85.46;98282.11;130003;1101;22725;-69
2021/05/20 00:50:19;;;;;;;1.03;0.85;;;;;;;11.56;85.30;98273.70;129967;1101;22665;-69
2021/05/20 00:52:47;;;;;;;1.98;0.98;;;;;;;11.54;85.38;98281.36;130011;1101;22650;-68
2021/05/20 00:55:19;;;;;;;1.35;0.90;;;;;;;11.53;85.36;98274.31;129933;1101;23395;-70
2021/05/20 00:57:47;;;;;;;1.13;1.03;;;;;;;11.53;85.27;98284.41;130004;1101;22521;-69
2021/05/20 01:00:16;;;;;;;0.90;0.75;;;;;;;11.52;85.41;98280.87;129934;1101;22610;-70
2021/05/20 01:02:45;;;;;;;0.80;0.80;;;;;;;11.51;85.08;98283.89;129963;1101;23535;-70
2021/05/20 01:05:14;;;;;;;2.28;1.35;;;;;;;11.47;85.37;98278.20;129967;1101;22561;-69
2021/05/20 01:07:42;;;;;;;2.63;1.00;;;;;;;11.47;85.29;98291.02;130025;1101;22628;-69
2021/05/20 01:10:11;;;;;;;4.20;1.10;;;;;;;11.44;85.23;98288.88;129933;1101;22627;-70
2021/05/20 01:12:40;;;;;;;1.60;1.40;;;;;;;11.40;85.19;98283.19;129982;1101;22529;-70
2021/05/20 01:15:21;;;;;;;1.63;1.23;;;;;;;11.38;85.54;98282.70;129957;1101;22516;-70
2021/05/20 01:17:56;;;;;;;2.43;1.58;;;;;;;11.39;85.48;98280.79;129971;1101;22577;-69
2021/05/20 01:20:30;;;;;;;1.20;1.10;;;;;;;11.39;85.68;98284.33;129976;1101;22567;-69
2021/05/20 01:23:03;;;;;;;11.38;1.20;;;;;;;11.40;85.27;98276.95;130005;1101;22541;-69
2021/05/20 01:25:32;;;;;;;2.25;1.10;;;;;;;11.41;85.66;98278.55;129937;1101;22999;-69
2021/05/20 01:28:11;;;;;;;3.65;2.20;;;;;;;11.43;85.67;98268.98;130015;1101;22603;-69
2021/05/20 01:30:42;;;;;;;4.40;1.28;;;;;;;11.42;85.56;98270.08;129963;1101;22549;-69
2021/05/20 01:33:11;;;;;;;8.10;1.35;;;;;;;11.41;85.21;98273.91;129965;1101;22611;-70
2021/05/20 01:35:39;;;;;;;1.55;1.25;;;;;;;11.39;85.19;98273.42;129952;1101;22560;-70
2021/05/20 01:41:09;;;;;;;5.83;1.48;;;;;;;11.34;85.30;98271.56;129941;1101;22542;-69
2021/05/20 01:43:39;;;;;;;3.35;1.63;;;;;;;11.33;85.25;98269.94;129976;1101;22549;-69
2021/05/20 01:46:08;;;;;;;3.03;1.70;;;;;;;11.32;85.07;98268.31;129985;1101;22568;-69
2021/05/20 01:48:41;;;;;;;2.03;1.18;;;;;;;11.31;85.31;98272.14;129957;1101;23249;-69
2021/05/20 01:51:13;;;;;;;2.08;1.50;;;;;;;11.29;85.01;98268.08;129928;1101;22704;-69
2021/05/20 01:53:43;;;;;;;4.98;1.38;;;;;;;11.25;84.65;98272.52;130024;1101;23783;-69
2021/05/20 01:56:13;;;;;;;2.88;1.30;;;;;;;11.22;85.14;98271.19;129964;1101;22548;-69
2021/05/20 01:58:42;;;;;;;2.15;1.48;;;;;;;11.21;84.83;98269.56;129962;1101;22588;-69
2021/05/20 02:01:11;;;;;;;1.55;1.40;;;;;;;11.21;85.00;98269.56;129947;1101;23803;-69
2021/05/20 02:03:40;;;;;;;1.90;1.50;;;;;;;11.22;84.79;98271.19;129969;1101;22525;-68
2021/05/20 02:06:09;;;;;;;3.25;1.58;;;;;;;11.20;85.05;98264.39;129759;1101;22652;-68
2021/05/20 02:08:37;;;;;;;2.50;1.40;;;;;;;11.18;84.98;98270.14;130024;1101;23117;-68
2021/05/20 02:11:12;;;;;;;3.00;1.50;;;;;;;11.18;84.99;98266.59;129982;1101;22665;-68
2021/05/20 02:13:40;;;;;;;2.00;1.43;;;;;;;11.17;84.87;98273.96;129975;1101;22617;-68
2021/05/20 02:16:10;;;;;;;3.53;1.80;;;;;;;11.17;84.98;98267.70;129992;1101;23112;-68
2021/05/20 02:18:40;;;;;;;2.23;1.60;;;;;;;11.15;84.99;98269.91;129966;1101;22546;-69
2021/05/20 02:21:08;;;;;;;2.75;1.68;;;;;;;11.19;84.89;98277.21;129965;1101;22681;-68
2021/05/20 02:24:17;;;;;;;7.45;1.53;;;;;;;11.20;85.06;98273.39;125614;1090;22749;-69
2021/05/20 02:26:45;;;;;;;1.73;1.60;;;;;;;11.20;84.67;98286.20;125436;1096;26210;-68
2021/05/20 02:29:14;;;;;;;2.73;1.60;;;;;;;11.18;84.72;98277.50;125450;1101;22791;-69
2021/05/20 02:31:42;;;;;;;2.23;1.70;;;;;;;11.18;84.63;98272.86;129859;1101;22793;-70
2021/05/20 02:34:12;;;;;;;3.23;1.60;;;;;;;11.16;84.86;98269.61;129970;1101;22531;-70
2021/05/20 02:36:40;;;;;;;5.15;1.90;;;;;;;11.16;84.89;98269.61;127185;1101;23585;-69
2021/05/20 02:39:09;;;;;;;3.30;1.68;;;;;;;11.16;84.65;98261.44;129761;1101;23231;-70
2021/05/20 02:41:37;;;;;;;2.73;1.73;;;;;;;11.14;84.74;98266.36;129967;1101;22539;-70
2021/05/20 02:44:07;;;;;;;2.05;1.53;;;;;;;11.14;84.60;98260.91;129932;1101;22545;-70
2021/05/20 02:46:37;;;;;;;4.43;2.08;;;;;;;11.13;84.58;98281.09;129991;1102;22615;-70
2021/05/20 02:49:05;;;;;;;8.35;2.55;;;;;;;11.11;84.53;98261.48;130017;1101;22569;-70
2021/05/20 02:51:33;;;;;;;1.98;1.50;;;;;;;11.09;84.39;98266.45;130032;1101;22576;-70
2021/05/20 02:54:02;;;;;;;3.35;1.78;;;;;;;11.08;84.34;98262.09;129975;1101;23358;-70
2021/05/20 02:56:30;;;;;;;6.33;1.70;;;;;;;11.07;84.22;98265.92;129951;1101;22544;-69
2021/05/20 02:59:01;;;;;;;2.30;1.58;;;;;;;11.08;84.26;98261.28;129931;1101;22727;-69
2021/05/20 03:01:29;;;;;;;4.78;1.70;;;;;;;11.07;84.06;98276.02;130033;1101;22639;-69
2021/05/20 03:03:58;;;;;;;3.48;1.50;;;;;;;11.07;84.15;98270.56;129917;1101;22610;-69
2021/05/20 03:06:27;;;;;;;4.50;1.70;;;;;;;11.05;84.09;98279.03;127597;1101;24424;-59
2021/05/20 03:08:57;;;;;;;2.40;1.73;;;;;;;11.05;84.21;98268.13;129482;1104;23291;-60
2021/05/20 03:11:26;;;;;;;2.23;1.40;;;;;;;11.07;83.99;98267.84;129622;1104;22529;-60
2021/05/20 03:13:56;;;;;;;2.20;1.58;;;;;;;11.08;83.85;98285.81;129601;1104;23662;-60
2021/05/20 03:16:24;;;;;;;3.20;1.60;;;;;;;11.09;83.98;98274.63;129667;1104;22635;-60
2021/05/20 03:18:53;;;;;;;4.90;1.80;;;;;;;11.09;83.83;98284.72;129619;1104;22531;-60
2021/05/20 03:21:22;;;;;;;5.40;1.60;;;;;;;11.07;83.36;98274.10;129666;1104;23034;-60
2021/05/20 03:23:50;;;;;;;2.48;1.03;;;;;;;11.07;83.40;98276.02;129682;1104;22580;-60
2021/05/20 03:26:19;;;;;;;2.18;1.40;;;;;;;11.08;83.45;98283.09;129617;1104;23179;-59
2021/05/20 03:28:47;;;;;;;3.40;1.45;;;;;;;11.10;83.09;98272.71;129618;1104;22582;-60
2021/05/20 03:31:16;;;;;;;2.35;1.73;;;;;;;11.10;83.33;98268.08;129649;1104;22750;-60
2021/05/20 03:33:44;;;;;;;1.45;1.25;;;;;;;11.11;82.98;98271.61;129667;1104;22723;-60
2021/05/20 03:36:13;;;;;;;4.05;1.73;;;;;;;11.11;82.90;98275.13;129564;1104;22680;-70
2021/05/20 03:38:44;;;;;;;2.48;1.70;;;;;;;11.11;82.87;98274.34;129622;1104;23247;-70
2021/05/20 03:41:12;;;;;;;2.50;1.25;;;;;;;11.13;82.98;98278.37;129893;1101;22661;-70
2021/05/20 03:43:40;;;;;;;2.18;1.18;;;;;;;11.14;82.69;98274.55;130030;1101;22584;-70
2021/05/20 03:46:35;;;;;;;1.40;1.23;;;;;;;11.18;82.87;98274.78;129990;1101;22541;-70
2021/05/20 03:49:03;;;;;;;1.60;1.35;;;;;;;11.19;82.90;98262.77;130006;1101;22617;-70
2021/05/20 03:51:36;;;;;;;2.88;1.50;;;;;;;11.21;83.02;98263.30;129977;1101;23622;-70
2021/05/20 03:54:04;;;;;;;2.90;1.30;;;;;;;11.21;82.63;98266.83;130042;1101;22530;-70
2021/05/20 03:56:34;;;;;;;2.00;1.35;;;;;;;11.24;82.77;98277.16;129957;1101;22573;-70
2021/05/20 03:59:03;;;;;;;3.10;1.75;;;;;;;11.24;82.63;98279.08;130023;1101;22553;-70
2021/05/20 04:01:32;;;;;;;2.25;1.40;;;;;;;11.25;82.43;98277.97;129987;1101;22572;-70
2021/05/20 04:04:00;;;;;;;2.18;1.20;;;;;;;11.26;82.50;98290.47;130040;1101;23373;-70
2021/05/20 04:06:28;;;;;;;2.70;1.30;;;;;;;11.26;82.31;98277.66;129928;1101;22703;-69
2021/05/20 04:08:57;;;;;;;1.78;1.50;;;;;;;11.24;82.34;98279.89;130002;1101;22556;-69
2021/05/20 04:11:26;;;;;;;1.30;1.20;;;;;;;11.28;82.43;98282.81;129950;1101;23294;-69
2021/05/20 04:13:55;;;;;;;3.60;1.55;;;;;;;11.31;82.45;98285.77;129976;1101;23796;-70
2021/05/20 04:16:25;;;;;;;2.58;1.50;;;;;;;11.34;82.64;98287.11;129924;1101;22545;-70
2021/05/20 04:18:55;;;;;;;5.03;1.80;;;;;;;11.39;82.63;98288.97;129970;1101;22600;-69
2021/05/20 04:21:23;;;;;;;7.48;1.80;;;;;;;11.42;82.52;98288.36;129908;1101;22554;-70
2021/05/20 04:23:52;;;;;;;2.10;1.33;;;;;;;11.45;82.17;98288.59;130055;1101;22532;-69
2021/05/20 04:26:20;;;;;;;2.45;1.58;;;;;;;11.46;82.23;98292.94;129957;1101;23430;-70
2021/05/20 04:28:50;;;;;;;4.10;1.53;;;;;;;11.47;82.07;98282.84;130000;1101;23644;-70
2021/05/20 04:31:18;;;;;;;4.90;1.58;;;;;;;11.47;81.83;98286.38;130028;1101;22616;-70
2021/05/20 04:33:46;;;;;;;2.25;1.58;;;;;;;11.47;81.38;98291.02;129892;1101;22565;-70
2021/05/20 04:36:15;;;;;;;3.25;1.78;;;;;;;11.46;81.44;98287.48;129995;1101;22690;-69
2021/05/20 04:38:47;;;;;;;3.40;2.60;;;;;;;11.47;81.43;98289.11;127016;1101;23273;-69
2021/05/20 04:41:15;;;;;;;2.88;1.53;;;;;;;11.48;81.23;98292.65;129838;1092;23313;-70
2021/05/20 04:43:44;;;;;;;2.05;1.48;;;;;;;11.50;81.37;98290.45;129889;1101;23519;-69
2021/05/20 04:46:12;;;;;;;3.50;1.55;;;;;;;11.52;81.54;98288.23;129971;1101;22603;-70
2021/05/20 04:48:41;;;;;;;2.03;1.73;;;;;;;11.54;81.43;98288.77;129944;1101;23234;-70
2021/05/20 04:51:09;;;;;;;3.15;1.10;;;;;;;11.59;81.29;98305.04;129969;1101;22580;-70
2021/05/20 04:53:37;;;;;;;1.63;1.40;;;;;;;11.64;81.15;98294.06;129706;1104;22590;-67
2021/05/20 04:56:06;;;;;;;2.15;1.48;;;;;;;11.68;80.92;98297.83;129975;1101;22591;-68
2021/05/20 04:58:34;;;;;;;3.35;1.85;;;;;;;11.74;80.87;98301.28;129922;1101;23306;-67
2021/05/20 05:01:03;;;;;;;2.08;1.23;;;;;;;11.77;80.54;98306.19;129722;1104;22599;-67
2021/05/20 05:03:31;;;;;;;3.83;1.30;;;;;;;11.78;80.20;98307.81;129933;1101;22580;-67
2021/05/20 05:05:59;;;;;;;3.50;1.65;;;;;;;11.79;80.00;98298.52;129963;1101;22591;-70
2021/05/20 05:08:28;;;;;;;2.90;1.60;;;;;;;11.81;80.43;98299.84;129645;1102;22547;-69
2021/05/20 05:10:56;;;;;;;3.45;1.33;;;;;;;11.87;80.07;98308.75;129680;1104;22560;-69
2021/05/20 05:13:24;;;;;;;5.18;1.58;;;;;;;11.91;80.09;98310.61;129662;1104;22533;-69
2021/05/20 05:15:56;;;;;;;2.45;1.38;;;;;;;11.96;80.17;98313.27;129684;1104;22795;-69
2021/05/20 05:18:25;;;;;;;2.13;1.33;;;;;;;12.01;79.56;98310.44;129645;1104;22668;-69
2021/05/20 05:20:53;;;;;;;2.08;1.23;;;;;;;12.06;79.20;98312.28;129705;1104;22792;-69
2021/05/20 05:23:21;;;;;;;2.18;1.40;;;;;;;12.13;79.31;98326.36;129687;1104;22508;-70
2021/05/20 05:25:50;;;;;;;2.75;1.63;;;;;;;12.19;79.17;98316.98;129665;1104;22567;-69
2021/05/20 05:28:18;;;;;;;6.00;1.60;;;;;;;12.28;79.13;98331.58;129684;1104;22522;-67
2021/05/20 05:30:47;;;;;;;4.03;1.20;;;;;;;12.36;78.67;98336.38;129648;1104;22545;-67
2021/05/20 05:33:21;;;;;;;2.90;1.38;;;;;;;12.45;78.29;98335.68;129711;1104;22516;-67
2021/05/20 05:35:49;;;;;;;2.48;1.35;;;;;;;12.51;77.79;98340.77;129657;1104;22686;-66
2021/05/20 05:38:18;;;;;;;3.40;1.30;;;;;;;12.58;77.17;98332.17;129681;1104;22632;-67
2021/05/20 05:40:46;;;;;;;3.53;1.53;;;;;;;12.69;77.43;98336.38;129664;1104;23000;-69
2021/05/20 05:43:15;;;;;;;2.48;1.55;;;;;;;12.78;77.18;98331.82;129686;1104;22513;-69
2021/05/20 05:45:43;;;;;;;2.75;1.58;;;;;;;12.87;76.21;98329.19;129647;1104;22587;-69
2021/05/20 05:48:12;;;;;;;3.78;1.60;;;;;;;12.97;76.11;98332.56;129680;1105;22662;-69
2021/05/20 05:50:41;;;;;;;3.18;1.38;;;;;;;13.08;75.81;98339.45;129631;1104;22570;-68
2021/05/20 05:53:27;;;;;;;2.55;1.50;;;;;;;13.20;75.73;98340.90;129692;1104;22720;-70
2021/05/20 05:55:56;;;;;;;5.75;1.90;;;;;;;13.30;75.53;98344.23;129611;1104;22728;-70
2021/05/20 05:58:24;;;;;;;6.88;1.80;;;;;;;13.38;75.73;98345.46;129684;1104;22511;-70
2021/05/20 06:00:53;;;;;;;4.65;2.20;;;;;;;13.43;75.33;98337.13;129633;1104;22552;-71
2021/05/20 06:03:21;;;;;;;2.85;1.90;;;;;;;13.46;75.34;98339.26;129687;1104;23256;-70
2021/05/20 06:05:50;;;;;;;1.83;1.63;;;;;;;13.47;74.99;98346.36;129641;1104;22608;-70
2021/05/20 06:08:19;;;;;;;3.15;1.70;;;;;;;13.45;74.94;98343.92;129688;1104;22659;-70
2021/05/20 06:10:47;;;;;;;4.18;1.53;;;;;;;13.47;74.87;98346.36;129641;1104;22564;-70
2021/05/20 06:13:15;;;;;;;7.10;1.40;;;;;;;13.51;74.15;98352.84;129659;1104;23766;-70
2021/05/20 06:15:44;;;;;;;2.28;1.60;;;;;;;13.53;74.47;98358.83;129641;1104;22520;-70
2021/05/20 06:18:14;;;;;;;6.90;1.35;;;;;;;13.58;74.25;98352.42;129607;1104;22532;-70
2021/05/20 06:20:42;;;;;;;5.50;1.50;;;;;;;13.62;73.51;98358.91;129627;1104;22646;-70
2021/05/20 06:23:11;;;;;;;4.05;1.83;;;;;;;13.63;73.28;98355.06;129653;1104;22610;-70
2021/05/20 06:25:41;;;;;;;4.00;1.40;;;;;;;13.63;72.96;98368.74;129625;1104;22576;-71
2021/05/20 06:28:09;;;;;;;2.73;1.60;;;;;;;13.60;72.51;98367.42;129637;1104;23262;-71
2021/05/20 06:30:37;;;;;;;5.48;1.60;;;;;;;13.57;72.54;98368.03;129704;1104;22540;-70
2021/05/20 06:33:06;;;;;;;6.73;1.48;;;;;;;13.57;72.84;98373.50;129654;1102;23892;-70
2021/05/20 06:35:34;;;;;;;2.58;1.58;;;;;;;13.56;72.45;98369.14;129657;1104;22527;-71
2021/05/20 06:38:03;;;;;;;6.13;1.75;;;;;;;13.54;72.45;98360.45;129639;1104;22547;-70
2021/05/20 06:40:31;;;;;;;2.90;1.78;;;;;;;13.56;72.59;98374.61;129661;1104;22550;-70
2021/05/20 06:42:59;;;;;;;4.23;1.55;;;;;;;13.58;73.09;98380.59;129613;1104;22568;-69
2021/05/20 06:45:28;;;;;;;2.90;1.70;;;;;;;13.64;72.95;98384.05;129727;1104;23848;-70
2021/05/20 06:47:57;;;;;;;4.55;1.60;;;;;;;13.71;72.93;98379.77;129646;1102;22578;-71
2021/05/20 06:50:25;;;;;;;6.78;1.93;;;;;;;13.79;73.21;98387.28;129715;1104;22562;-70
2021/05/20 06:52:54;;;;;;;4.43;2.00;;;;;;;13.87;72.69;98388.47;129604;1104;22558;-70
2021/05/20 06:55:23;;;;;;;6.33;2.38;;;;;;;13.96;72.60;98391.31;129688;1104;23639;-70
2021/05/20 07:00:36;;;;;;;4.08;2.30;;;;;;;14.05;71.70;98401.22;129709;1102;22607;-71
2021/05/20 07:03:14;;;;;;;4.70;1.90;;;;;;;14.07;71.39;98407.20;129597;1104;22643;-72
2021/05/20 07:05:42;;;;;;;3.93;1.70;;;;;;;14.07;70.94;98398.17;129654;1104;22572;-71
2021/05/20 07:08:12;;;;;;;2.88;1.60;;;;;;;14.04;70.43;98410.55;129632;1104;22554;-71
2021/05/20 07:10:40;;;;;;;5.45;1.70;;;;;;;14.01;70.57;98418.56;129669;1104;22577;-71
2021/05/20 07:13:10;;;;;;;5.70;1.68;;;;;;;13.97;70.27;98417.58;129635;1104;22532;-72
2021/05/20 07:15:40;;;;;;;6.88;1.90;;;;;;;13.93;70.55;98409.16;129686;1104;22669;-72
2021/05/20 07:18:08;;;;;;;3.33;2.20;;;;;;;13.90;70.26;98414.44;129671;1104;22629;-71
2021/05/20 07:20:40;;;;;;;2.68;1.90;;;;;;;13.86;70.33;98416.16;129710;1104;23137;-71
2021/05/20 07:23:15;;;;;;;9.03;2.30;;;;;;;13.82;70.36;98413.23;129666;1104;23571;-71
2021/05/20 07:25:44;;;;;;;5.75;1.73;;;;;;;13.79;70.19;98416.58;129695;1104;22614;-71
2021/05/20 07:28:12;;;;;;;4.05;1.73;;;;;;;13.78;69.51;98418.51;129687;1104;22592;-71
2021/05/20 07:30:41;;;;;;;4.95;1.43;;;;;;;13.77;69.90;98416.08;129650;1104;22630;-71
2021/05/20 07:33:11;;;;;;;3.55;1.75;;;;;;;13.76;69.73;98425.40;129672;1104;22596;-71
2021/05/20 07:35:40;;;;;;;4.30;1.68;;;;;;;13.76;69.40;98425.40;129679;1104;22614;-71
2021/05/20 07:38:08;;;;;;;2.40;1.65;;;;;;;13.75;69.42;98424.59;129628;1104;22634;-71
2021/05/20 07:40:36;;;;;;;5.78;1.75;;;;;;;13.74;69.41;98428.44;129681;1104;23340;-71
2021/05/20 07:43:05;;;;;;;9.43;1.90;;;;;;;13.70;69.44;98434.85;129697;1104;23059;-71
2021/05/20 07:45:33;;;;;;;6.78;2.18;;;;;;;13.71;69.70;98437.25;129658;1104;22569;-71
2021/05/20 07:48:02;;;;;;;4.00;2.00;;;;;;;13.71;69.36;98439.99;129697;1104;22683;-71
2021/05/20 07:50:31;;;;;;;5.95;1.85;;;;;;;13.71;68.66;98439.99;129631;1104;22642;-71
2021/05/20 07:52:59;;;;;;;3.48;1.70;;;;;;;13.70;68.76;98446.61;129699;1104;22505;-71
2021/05/20 07:55:27;;;;;;;8.15;2.50;;;;;;;13.71;69.14;98444.66;129024;1097;22571;-71
2021/05/20 07:57:58;;;;;;;5.98;2.18;;;;;;;13.73;69.35;98456.11;124780;1104;22802;-71
2021/05/20 08:00:28;;;;;;;4.38;2.93;;;;;;;13.75;69.60;98456.63;124647;1097;27123;-71
2021/05/20 08:05:39;;;;;;;4.95;1.95;;;;;;;13.80;69.46;98462.83;129654;1104;22636;-71
2021/05/20 08:11:02;;;;;;;5.88;1.75;;;;;;;13.85;69.44;98463.84;129614;1104;22034;-70
2021/05/20 08:13:31;;;;;;;9.27;2.47;;;;;;;13.88;69.28;98471.42;129693;1104;22578;-70
2021/05/20 08:16:00;;;;;;;2.88;1.73;;;;;;;13.91;68.80;98465.34;129693;1104;22632;-70
2021/05/20 08:18:29;;;;;;;6.90;1.85;;;;;;;13.93;68.79;98474.06;129684;1104;22562;-73
2021/05/20 08:20:58;;;;;;;6.38;2.05;;;;;;;13.96;68.29;98478.94;129640;1104;22550;-72
2021/05/20 08:23:27;;;;;;;4.75;1.78;;;;;;;14.02;68.37;98483.18;129719;1104;22512;-72
2021/05/20 08:25:55;;;;;;;4.05;1.65;;;;;;;14.08;68.22;98488.26;129672;1104;22598;-71
2021/05/20 08:28:24;;;;;;;4.90;1.78;;;;;;;14.12;67.68;98482.98;129661;1104;23242;-66
2021/05/20 08:30:52;;;;;;;5.00;1.65;;;;;;;14.14;67.09;98494.42;129673;1104;22655;-65
2021/05/20 08:33:22;;;;;;;4.95;2.30;;;;;;;14.13;67.23;98501.86;129642;1104;22515;-65
2021/05/20 08:35:50;;;;;;;7.28;2.10;;;;;;;14.13;67.43;98504.59;129702;1104;23296;-64
2021/05/20 08:38:19;;;;;;;11.08;1.80;;;;;;;14.12;67.41;98499.42;129655;1104;22530;-65
2021/05/20 08:40:47;;;;;;;8.10;2.43;;;;;;;14.10;67.34;98507.13;129676;1104;22538;-64
2021/05/20 08:43:16;;;;;;;8.33;2.18;;;;;;;14.07;67.35;98500.33;129682;1104;22576;-64
2021/05/20 08:45:44;;;;;;;6.28;1.90;;;;;;;14.05;66.84;98510.77;129685;1104;23006;-64
2021/05/20 08:48:13;;;;;;;9.43;2.35;;;;;;;14.04;66.94;98508.34;129632;1104;22643;-64
2021/05/20 08:50:41;;;;;;;6.03;1.90;;;;;;;14.03;67.36;98517.67;129684;1104;23167;-64
2021/05/20 08:53:10;;;;;;;5.95;1.85;;;;;;;14.01;66.98;98515.23;129672;1104;22572;-64
2021/05/20 08:55:39;;;;;;;5.23;1.90;;;;;;;14.02;66.94;98516.05;129713;1104;22588;-64
2021/05/20 08:58:11;;;;;;;3.48;1.83;;;;;;;14.04;67.18;98519.30;129702;1104;22518;-65
2021/05/20 09:00:39;;;;;;;5.15;1.83;;;;;;;14.08;67.48;98521.13;129641;1104;22616;-65
2021/05/20 09:03:12;;;;;;;6.28;2.05;;;;;;;14.14;66.89;98510.86;129640;1104;23599;-64
2021/05/20 09:05:41;;;;;;;2.55;2.03;;;;;;;14.22;66.92;98521.12;129603;1104;22648;-65
2021/05/20 09:08:13;;;;;;;5.63;1.83;;;;;;;14.30;66.22;98505.87;129621;1104;22541;-64
2021/05/20 09:10:42;;;;;;;5.38;1.50;;;;;;;14.39;66.60;98504.05;129647;1104;23539;-65
2021/05/20 09:13:13;;;;;;;5.78;1.88;;;;;;;14.50;66.84;98505.47;129635;1104;22549;-64
2021/05/20 09:15:42;;;;;;;7.10;1.45;;;;;;;14.63;65.86;98514.77;129673;1104;22531;-64
2021/05/20 09:18:18;;;;;;;4.40;1.50;;;;;;;14.72;65.26;98516.45;129617;1104;22578;-63
2021/05/20 09:20:47;;;;;;;7.75;1.70;;;;;;;14.79;64.98;98519.59;129668;1104;22724;-64
2021/05/20 09:23:20;;;;;;;3.60;1.30;;;;;;;14.85;64.27;98520.30;129696;1104;22702;-64
2021/05/20 09:25:51;;;;;;;5.80;1.70;;;;;;;14.90;64.34;98524.83;129662;1104;22675;-63
2021/05/20 09:28:38;;;;;;;10.40;2.93;;;;;;;14.98;64.56;98527.66;129638;1104;22632;-64
2021/05/20 09:31:08;;;;;;;2.65;1.50;;;;;;;15.09;64.18;98530.96;129645;1104;23166;-64
2021/05/20 09:33:37;;;;;;;2.60;1.40;;;;;;;15.18;64.40;98520.84;129636;1104;22616;-64
2021/05/20 09:36:07;;;;;;;7.25;3.63;;;;;;;15.27;63.17;98534.64;129688;1104;22737;-63
2021/05/20 09:38:36;;;;;;;2.70;1.70;;;;;;;15.35;62.62;98531.13;129656;1104;22555;-67
2021/05/20 09:41:06;;;;;;;3.05;2.10;;;;;;;15.40;62.11;98534.57;129677;1104;22549;-65
2021/05/20 09:43:38;;;;;;;7.58;2.70;;;;;;;15.46;60.68;98536.05;129714;1104;22724;-67
2021/05/20 09:46:16;;;;;;;5.40;1.80;;;;;;;15.48;61.33;98535.73;129678;1104;22562;-66
2021/05/20 09:48:47;;;;;;;4.03;1.48;;;;;;;15.55;61.56;98538.89;129669;1104;22690;-66
2021/05/20 09:51:23;;;;;;;4.05;1.18;;;;;;;15.62;60.44;98541.17;129649;1104;22588;-66
2021/05/20 09:53:53;;;;;;;2.40;1.43;;;;;;;15.64;59.44;98556.21;129671;1104;22993;-66
2021/05/20 09:56:31;;;;;;;1.58;1.10;;;;;;;15.64;58.18;98544.41;127232;1104;22781;-61
2021/05/20 09:59:17;;;;;;;2.88;1.10;;;;;;;15.62;58.32;98539.23;125005;1104;24285;-60
2021/05/20 10:01:46;;;;;;;5.70;1.73;;;;;;;15.62;57.58;98531.00;125046;1097;26213;-61
2021/05/20 10:04:30;;;;;;;2.75;1.25;;;;;;;15.62;57.48;98535.68;125184;1101;22774;-61
2021/05/20 10:07:02;;;;;;;8.13;1.63;;;;;;;15.62;57.87;98550.22;125219;1104;25539;-61
2021/05/20 10:09:31;;;;;;;2.23;1.20;;;;;;;15.67;57.65;98552.84;129563;1104;23535;-61
2021/05/20 10:12:03;;;;;;;5.00;1.60;;;;;;;15.69;57.74;98550.59;129653;1104;23334;-62
2021/05/20 10:14:31;;;;;;;5.78;1.80;;;;;;;15.70;57.48;98556.90;129602;1104;22635;-62
2021/05/20 10:17:02;;;;;;;4.40;1.35;;;;;;;15.67;57.08;98547.35;129685;1104;22553;-62
2021/05/20 10:19:31;;;;;;;5.20;1.30;;;;;;;15.63;57.63;98548.28;129658;1104;23438;-62
2021/05/20 10:22:00;;;;;;;4.58;1.20;;;;;;;15.55;56.91;98578.14;129654;1104;23047;-62
2021/05/20 10:24:29;;;;;;;3.78;1.55;;;;;;;15.48;57.07;98561.25;129706;1104;23585;-61
2021/05/20 10:26:58;;;;;;;3.38;1.40;;;;;;;15.39;57.09;98573.31;126308;1104;22759;-66
2021/05/20 10:29:27;;;;;;;4.65;2.60;;;;;;;15.29;57.66;98566.15;129550;1104;22576;-66
2021/05/20 10:31:55;;;;;;;1.80;1.50;;;;;;;15.19;58.13;98561.70;129615;1104;22630;-66
2021/05/20 10:34:26;;;;;;;4.45;1.55;;;;;;;15.12;57.95;98564.08;129687;1104;22535;-67
2021/05/20 10:36:59;;;;;;;4.65;2.78;;;;;;;15.06;58.14;98551.59;129646;1104;23404;-66
2021/05/20 10:39:28;;;;;;;7.88;1.55;;;;;;;15.04;58.87;98566.73;129692;1104;22555;-66
2021/05/20 10:41:57;;;;;;;2.63;1.15;;;;;;;15.08;59.82;98562.26;129627;1104;22598;-66
2021/05/20 10:44:26;;;;;;;4.18;1.18;;;;;;;15.17;60.54;98560.38;129658;1104;22678;-66
2021/05/20 10:47:03;;;;;;;1.50;1.18;;;;;;;15.28;60.03;98550.80;129601;1104;22541;-66
2021/05/20 10:49:48;;;;;;;4.10;1.60;;;;;;;15.40;60.10;98547.48;129651;1104;22587;-66
2021/05/20 10:52:37;;;;;;;4.48;1.40;;;;;;;15.59;59.43;98553.59;129674;1104;22532;-66
2021/05/20 10:55:07;;;;;;;1.70;1.13;;;;;;;15.69;57.67;98558.02;129693;1104;22568;-66
2021/05/20 10:57:51;;;;;;;2.60;1.40;;;;;;;15.68;57.51;98548.97;129666;1104;22554;-66
2021/05/20 11:00:39;;;;;;;8.00;1.58;;;;;;;15.65;58.31;98555.09;129700;1104;22698;-66
2021/05/20 11:03:08;;;;;;;4.10;1.58;;;;;;;15.64;58.86;98561.70;129672;1104;22609;-66
2021/05/20 11:05:42;;;;;;;4.98;1.43;;;;;;;15.65;59.14;98557.83;129695;1104;22548;-67
2021/05/20 11:08:26;;;;;;;2.00;1.53;;;;;;;15.70;59.50;98562.39;129668;1104;23463;-68
2021/05/20 11:11:30;;;;;;;4.40;1.43;;;;;;;15.79;58.35;98568.73;129666;1104;23104;-67
2021/05/20 11:14:01;;;;;;;2.18;1.15;;;;;;;15.87;57.70;98567.95;129598;1104;22623;-67
2021/05/20 11:16:29;;;;;;;4.93;1.20;;;;;;;15.98;58.78;98563.83;129651;1104;22610;-67
2021/05/20 11:19:18;;;;;;;4.80;1.78;;;;;;;16.07;58.04;98569.34;129658;1104;22626;-65
2021/05/20 11:22:00;;;;;;;3.88;1.83;;;;;;;16.17;57.38;98577.30;129669;1104;22764;-66
2021/05/20 11:24:32;;;;;;;3.45;1.10;;;;;;;16.24;56.20;98572.16;129632;1104;23022;-66
2021/05/20 11:27:09;;;;;;;2.90;1.20;;;;;;;16.27;56.13;98571.53;129719;1104;22566;-67
2021/05/20 11:29:39;;;;;;;3.75;1.50;;;;;;;16.30;56.31;98565.41;129683;1104;23120;-68
2021/05/20 11:32:30;;;;;;;2.78;1.70;;;;;;;16.34;56.73;98573.80;129633;1104;23381;-68
2021/05/20 11:35:32;;;;;;;5.95;2.15;;;;;;;16.36;56.59;98582.55;129621;1104;22537;-65
2021/05/20 11:38:01;;;;;;;4.08;1.40;;;;;;;16.38;56.98;98575.60;129652;1104;22647;-65
2021/05/20 11:40:32;;;;;;;2.38;1.45;;;;;;;16.40;55.93;98580.78;129581;1104;23404;-65
2021/05/20 11:43:02;;;;;;;2.00;1.28;;;;;;;16.39;55.59;98573.66;129680;1104;23436;-65
2021/05/20 11:45:32;;;;;;;1.85;1.15;;;;;;;16.35;55.41;98578.98;129690;1104;23172;-65
2021/05/20 11:48:01;;;;;;;4.90;1.15;;;;;;;16.31;55.37;98579.93;129642;1104;22587;-66
2021/05/20 11:50:31;;;;;;;4.55;1.60;;;;;;;16.25;55.49;98580.09;129710;1104;22512;-66